Time;durP1;ratioP1;P1;durP2;ratioP2;P2;SDS_P1;SDS_P2;PMS_P1;PMS_P2;Temp;Humidity;BMP_temperature;BMP_pressure;BME280_temperature;BME280_humidity;BME280_pressure;Samples;Min_cycle;Max_cycle;Signal;HPM_P1;HPM_P2
2022/01/08 00:00:26;;;;;;;14.10;10.23;;;;;;;;;;10355518;28;20154;-59
2022/01/08 00:05:24;;;;;;;12.32;9.00;;;;;;;;;;10358086;28;20071;-55
2022/01/08 00:10:22;;;;;;;14.23;10.63;;;;;;;;;;10359091;28;20126;-57
2022/01/08 00:15:22;;;;;;;15.00;10.80;;;;;;;;;;10359064;28;20066;-58
2022/01/08 00:20:20;;;;;;;13.48;10.52;;;;;;;;;;10358385;28;20484;-59
2022/01/08 00:25:19;;;;;;;13.35;10.60;;;;;;;;;;10358744;28;20335;-59
2022/01/08 00:30:17;;;;;;;12.05;9.15;;;;;;;;;;10338722;28;20090;-59
2022/01/08 00:35:17;;;;;;;10.20;8.45;;;;;;;;;;10358396;28;20117;-60
2022/01/08 00:40:16;;;;;;;11.93;8.43;;;;;;;;;;10358208;28;20095;-57
2022/01/08 00:45:14;;;;;;;15.73;11.18;;;;;;;;;;10357983;28;20064;-58
2022/01/08 00:50:13;;;;;;;11.20;8.88;;;;;;;;;;10353888;28;20071;-58
2022/01/08 00:55:13;;;;;;;11.93;9.60;;;;;;;;;;10352298;28;20079;-58
2022/01/08 01:00:12;;;;;;;13.10;9.70;;;;;;;;;;10337934;28;20080;-58
2022/01/08 01:05:11;;;;;;;10.70;8.40;;;;;;;;;;10353582;28;20044;-58
2022/01/08 01:10:10;;;;;;;8.98;7.68;;;;;;;;;;10353007;28;20067;-58
2022/01/08 01:15:12;;;;;;;11.25;8.68;;;;;;;;;;10351941;28;20516;-58
2022/01/08 01:20:12;;;;;;;12.13;7.95;;;;;;;;;;10352800;28;20079;-58
2022/01/08 01:25:14;;;;;;;10.38;8.50;;;;;;;;;;10355431;28;20079;-58
2022/01/08 01:30:16;;;;;;;8.02;7.18;;;;;;;;;;10355747;28;20071;-56
2022/01/08 01:51:03;;;;;;;9.07;7.10;;;;;;;;;;10351741;28;20072;-58
2022/01/08 01:56:02;;;;;;;9.05;7.15;;;;;;;;;;10354568;28;20075;-58
2022/01/08 02:01:02;;;;;;;10.10;8.13;;;;;;;;;;10355420;28;20099;-58
2022/01/08 02:06:00;;;;;;;8.93;7.85;;;;;;;;;;10354273;28;20499;-58
2022/01/08 02:10:58;;;;;;;8.77;7.35;;;;;;;;;;10354801;28;20508;-58
2022/01/08 02:15:58;;;;;;;9.48;8.10;;;;;;;;;;10354449;28;20071;-56
2022/01/08 02:20:58;;;;;;;9.88;7.88;;;;;;;;;;10353997;28;20040;-58
2022/01/08 02:26:02;;;;;;;9.63;7.53;;;;;;;;;;10353003;28;20071;-58
2022/01/08 02:31:01;;;;;;;9.10;7.45;;;;;;;;;;10352042;28;20075;-57
2022/01/08 02:36:04;;;;;;;9.48;7.68;;;;;;;;;;10351353;28;20071;-58
2022/01/08 02:41:05;;;;;;;13.23;8.57;;;;;;;;;;10352590;28;20560;-58
2022/01/08 02:46:03;;;;;;;10.63;8.57;;;;;;;;;;10346932;28;20064;-58
2022/01/08 02:51:03;;;;;;;13.50;10.20;;;;;;;;;;10352072;28;20126;-58
2022/01/08 02:56:01;;;;;;;14.90;9.57;;;;;;;;;;10352549;28;20067;-58
2022/01/08 03:01:00;;;;;;;10.20;8.65;;;;;;;;;;10352138;28;20503;-58
2022/01/08 03:05:58;;;;;;;12.25;9.32;;;;;;;;;;10352222;28;20063;-58
2022/01/08 03:10:58;;;;;;;16.02;8.35;;;;;;;;;;10353905;28;20177;-59
2022/01/08 03:15:56;;;;;;;10.30;7.82;;;;;;;;;;10351492;28;20095;-58
2022/01/08 03:21:01;;;;;;;9.93;8.35;;;;;;;;;;10353918;28;20076;-58
2022/01/08 03:26:01;;;;;;;10.65;9.25;;;;;;;;;;10353045;28;20040;-58
2022/01/08 03:31:00;;;;;;;12.23;9.55;;;;;;;;;;10346522;28;20072;-58
2022/01/08 03:35:58;;;;;;;14.50;10.93;;;;;;;;;;10350661;28;20095;-58
2022/01/08 03:40:56;;;;;;;10.63;9.38;;;;;;;;;;10352043;28;20071;-58
2022/01/08 03:45:56;;;;;;;13.85;9.80;;;;;;;;;;10352022;28;20469;-58
2022/01/08 03:50:55;;;;;;;9.77;8.02;;;;;;;;;;10350845;28;20078;-58
2022/01/08 03:55:53;;;;;;;12.73;10.00;;;;;;;;;;10351104;28;20082;-56
2022/01/08 04:00:52;;;;;;;15.23;12.57;;;;;;;;;;10332435;28;20051;-58
2022/01/08 04:05:52;;;;;;;12.32;10.75;;;;;;;;;;10351457;28;20157;-58
2022/01/08 04:10:50;;;;;;;13.55;10.55;;;;;;;;;;10350905;28;20075;-58
2022/01/08 04:15:51;;;;;;;12.18;9.75;;;;;;;;;;10351105;28;20071;-58
2022/01/08 04:21:07;;;;;;;21.35;16.77;;;;;;;;;;10350580;28;20086;-58
2022/01/08 04:26:07;;;;;;;16.00;11.07;;;;;;;;;;10345590;28;20067;-58
2022/01/08 04:31:05;;;;;;;9.95;8.95;;;;;;;;;;10357133;28;20067;-57
2022/01/08 04:36:03;;;;;;;9.38;8.38;;;;;;;;;;10351673;28;20185;-55
2022/01/08 04:41:02;;;;;;;11.70;10.10;;;;;;;;;;10356633;28;20115;-58
2022/01/08 04:46:01;;;;;;;9.40;8.20;;;;;;;;;;10355998;28;20110;-58
2022/01/08 04:51:00;;;;;;;10.65;9.55;;;;;;;;;;10355752;28;20079;-58
2022/01/08 04:55:58;;;;;;;10.65;9.35;;;;;;;;;;10359128;28;20125;-58
2022/01/08 05:00:57;;;;;;;10.38;8.45;;;;;;;;;;10358107;28;20066;-58
2022/01/08 05:05:57;;;;;;;9.65;8.40;;;;;;;;;;10352265;28;20462;-59
2022/01/08 05:10:55;;;;;;;10.20;9.05;;;;;;;;;;10355791;28;20098;-58
2022/01/08 05:15:53;;;;;;;13.90;9.85;;;;;;;;;;10356616;28;20513;-60
2022/01/08 05:20:56;;;;;;;12.60;10.43;;;;;;;;;;10355042;28;20067;-57
2022/01/08 05:25:56;;;;;;;11.90;10.07;;;;;;;;;;10356294;28;20064;-59
2022/01/08 05:30:54;;;;;;;14.80;12.63;;;;;;;;;;10354311;28;20091;-58
2022/01/08 05:35:53;;;;;;;10.52;9.43;;;;;;;;;;10336326;28;20516;-58
2022/01/08 05:40:51;;;;;;;11.23;9.77;;;;;;;;;;10354300;28;20404;-58
2022/01/08 05:45:51;;;;;;;11.02;9.93;;;;;;;;;;10355463;28;20520;-57
2022/01/08 05:50:49;;;;;;;12.10;10.80;;;;;;;;;;10354372;28;20504;-57
2022/01/08 05:55:49;;;;;;;13.45;10.85;;;;;;;;;;10353808;28;20441;-58
2022/01/08 06:00:47;;;;;;;12.18;9.77;;;;;;;;;;10353350;28;20082;-58
2022/01/08 06:05:47;;;;;;;16.23;11.07;;;;;;;;;;10353585;28;20071;-58
2022/01/08 06:10:45;;;;;;;16.73;12.38;;;;;;;;;;10353662;28;20473;-59
2022/01/08 06:15:44;;;;;;;15.50;11.00;;;;;;;;;;10354266;28;20071;-59
2022/01/08 06:20:42;;;;;;;17.40;13.38;;;;;;;;;;10353644;28;20056;-59
2022/01/08 06:25:43;;;;;;;14.50;11.77;;;;;;;;;;10353820;28;20040;-58
2022/01/08 06:30:41;;;;;;;15.80;10.23;;;;;;;;;;10353260;28;20072;-59
2022/01/08 06:35:39;;;;;;;15.32;11.85;;;;;;;;;;10353810;28;20074;-58
2022/01/08 06:40:38;;;;;;;12.18;9.85;;;;;;;;;;10350962;28;20082;-59
2022/01/08 06:45:37;;;;;;;17.60;13.27;;;;;;;;;;10353386;28;20465;-58
2022/01/08 06:50:35;;;;;;;14.25;11.40;;;;;;;;;;10351021;28;20269;-55
2022/01/08 06:55:35;;;;;;;19.52;12.75;;;;;;;;;;10350123;28;20106;-54
2022/01/08 07:00:33;;;;;;;16.92;11.35;;;;;;;;;;10350480;28;20063;-59
2022/01/08 07:05:33;;;;;;;22.77;14.65;;;;;;;;;;10349083;28;20516;-58
2022/01/08 07:10:31;;;;;;;27.80;15.75;;;;;;;;;;10349229;28;20508;-58
2022/01/08 07:15:29;;;;;;;26.05;17.65;;;;;;;;;;10347325;28;20071;-57
2022/01/08 07:20:28;;;;;;;38.47;22.30;;;;;;;;;;10351267;28;20527;-58
2022/01/08 07:25:27;;;;;;;65.70;36.95;;;;;;;;;;10348140;28;20090;-58
2022/01/08 07:30:25;;;;;;;40.58;29.45;;;;;;;;;;10351308;28;20441;-58
2022/01/08 07:35:24;;;;;;;17.52;15.73;;;;;;;;;;10351585;28;20468;-58
2022/01/08 07:40:22;;;;;;;23.67;16.67;;;;;;;;;;10353429;28;20056;-58
2022/01/08 07:45:22;;;;;;;34.13;18.75;;;;;;;;;;10347313;28;20072;-59
2022/01/08 07:50:20;;;;;;;21.02;15.25;;;;;;;;;;10350906;28;20084;-57
2022/01/08 07:55:19;;;;;;;46.85;30.60;;;;;;;;;;10347865;28;20086;-59
2022/01/08 08:00:17;;;;;;;72.78;49.10;;;;;;;;;;10348265;28;20055;-59
2022/01/08 08:05:16;;;;;;;26.15;20.45;;;;;;;;;;10352453;28;20070;-58
2022/01/08 08:10:17;;;;;;;24.88;19.35;;;;;;;;;;10354620;28;20068;-59
2022/01/08 08:15:17;;;;;;;39.83;26.00;;;;;;;;;;10353583;28;20071;-58
2022/01/08 08:20:15;;;;;;;48.28;31.30;;;;;;;;;;10357556;28;20067;-58
2022/01/08 08:25:14;;;;;;;29.08;21.15;;;;;;;;;;10355050;28;20064;-54
2022/01/08 08:30:13;;;;;;;39.13;26.20;;;;;;;;;;10355168;28;20063;-58
2022/01/08 08:35:11;;;;;;;24.30;18.73;;;;;;;;;;10355064;28;20079;-58
2022/01/08 08:40:10;;;;;;;26.67;21.85;;;;;;;;;;10356100;28;20057;-58
2022/01/08 08:45:10;;;;;;;21.15;16.83;;;;;;;;;;10355210;28;20063;-57
2022/01/08 08:50:09;;;;;;;24.25;17.98;;;;;;;;;;10354706;28;20070;-50
2022/01/08 08:55:08;;;;;;;27.05;16.25;;;;;;;;;;10355737;28;20068;-55
2022/01/08 09:00:07;;;;;;;23.52;18.60;;;;;;;;;;10354563;28;20072;-54
2022/01/08 09:05:07;;;;;;;22.92;19.33;;;;;;;;;;10354397;28;20082;-58
2022/01/08 09:10:07;;;;;;;36.08;27.38;;;;;;;;;;10356790;28;20078;-59
2022/01/08 09:15:05;;;;;;;24.30;17.02;;;;;;;;;;10357181;28;20536;-58
2022/01/08 09:20:04;;;;;;;27.65;20.33;;;;;;;;;;10352482;28;20062;-59
2022/01/08 09:25:04;;;;;;;25.33;19.40;;;;;;;;;;10356178;28;20072;-57
2022/01/08 09:30:03;;;;;;;28.15;19.73;;;;;;;;;;10355239;28;20072;-59
2022/01/08 09:35:01;;;;;;;34.83;30.17;;;;;;;;;;10354247;28;20087;-58
2022/01/08 09:40:00;;;;;;;31.13;24.17;;;;;;;;;;10356588;28;20082;-57
2022/01/08 09:44:59;;;;;;;20.83;17.27;;;;;;;;;;10337289;28;20040;-57
2022/01/08 09:49:58;;;;;;;18.25;14.75;;;;;;;;;;10353186;28;20084;-58
2022/01/08 09:54:56;;;;;;;35.92;25.38;;;;;;;;;;10354303;28;20079;-59
2022/01/08 09:59:54;;;;;;;34.63;21.92;;;;;;;;;;10352985;28;20529;-59
2022/01/08 10:04:54;;;;;;;84.13;52.58;;;;;;;;;;10353221;28;20452;-57
2022/01/08 10:09:59;;;;;;;27.17;22.83;;;;;;;;;;10353794;28;20461;-57
2022/01/08 10:20:27;;;;;;;26.33;21.15;;;;;;;;;;10350519;28;20105;-58
2022/01/08 10:25:25;;;;;;;28.35;20.17;;;;;;;;;;10350599;28;20074;-58
2022/01/08 10:30:24;;;;;;;35.90;28.15;;;;;;;;;;10351915;28;20071;-58
2022/01/08 10:35:38;;;;;;;21.38;16.38;;;;;;;;;;10351439;28;20503;-56
2022/01/08 10:40:38;;;;;;;25.73;17.92;;;;;;;;;;10351832;28;20068;-59
2022/01/08 10:45:36;;;;;;;19.05;16.05;;;;;;;;;;10352449;28;20131;-58
2022/01/08 10:50:34;;;;;;;29.92;20.15;;;;;;;;;;10351687;28;20071;-57
2022/01/08 10:55:33;;;;;;;23.23;16.83;;;;;;;;;;10351864;28;20074;-59
2022/01/08 11:00:33;;;;;;;23.80;17.45;;;;;;;;;;10353095;28;20098;-59
2022/01/08 11:05:32;;;;;;;57.83;38.40;;;;;;;;;;10351979;28;20068;-58
2022/01/08 11:10:31;;;;;;;40.40;29.77;;;;;;;;;;10351051;28;20082;-54
2022/01/08 11:15:48;;;;;;;30.35;22.52;;;;;;;;;;10350095;28;20069;-58
2022/01/08 11:20:48;;;;;;;26.15;20.42;;;;;;;;;;10350035;28;20462;-58
2022/01/08 11:25:49;;;;;;;43.90;28.52;;;;;;;;;;10347346;28;20458;-54
2022/01/08 11:30:51;;;;;;;47.88;33.35;;;;;;;;;;10352517;28;20056;-58
2022/01/08 11:35:51;;;;;;;65.30;49.08;;;;;;;;;;10351922;28;20473;-58
2022/01/08 11:40:51;;;;;;;101.28;60.80;;;;;;;;;;10359818;28;20086;-56
2022/01/08 11:45:52;;;;;;;42.05;27.42;;;;;;;;;;10358737;28;20063;-58
2022/01/08 11:50:52;;;;;;;70.28;46.30;;;;;;;;;;10349040;28;20079;-58
2022/01/08 11:55:52;;;;;;;89.07;53.75;;;;;;;;;;10357602;28;20075;-58
2022/01/08 12:00:52;;;;;;;42.90;31.45;;;;;;;;;;10356367;28;20071;-57
2022/01/08 12:05:52;;;;;;;40.55;31.20;;;;;;;;;;10358121;28;20071;-59
2022/01/08 12:10:58;;;;;;;43.13;34.05;;;;;;;;;;10357868;28;20083;-58
2022/01/08 12:15:56;;;;;;;25.45;17.40;;;;;;;;;;10355912;28;20461;-58
2022/01/08 12:20:57;;;;;;;20.27;16.30;;;;;;;;;;10353374;28;20079;-58
2022/01/08 12:25:55;;;;;;;28.48;19.75;;;;;;;;;;10357013;28;20138;-57
2022/01/08 12:30:53;;;;;;;32.00;23.17;;;;;;;;;;10357826;28;20083;-58
2022/01/08 12:35:57;;;;;;;19.40;13.55;;;;;;;;;;10356631;28;20099;-55
2022/01/08 12:40:58;;;;;;;27.75;20.35;;;;;;;;;;10354180;28;20066;-55
2022/01/08 12:46:11;;;;;;;25.52;19.63;;;;;;;;;;10355705;28;20072;-56
2022/01/08 12:51:09;;;;;;;28.42;19.88;;;;;;;;;;10353097;28;20079;-55
2022/01/08 12:56:10;;;;;;;17.48;14.63;;;;;;;;;;10354102;28;20075;-56
2022/01/08 13:01:09;;;;;;;15.82;13.10;;;;;;;;;;10353182;28;20064;-58
2022/01/08 13:06:20;;;;;;;29.88;21.52;;;;;;;;;;10346913;28;20082;-58
2022/01/08 13:11:20;;;;;;;23.05;17.92;;;;;;;;;;10338620;28;20064;-58
2022/01/08 13:16:19;;;;;;;32.38;23.77;;;;;;;;;;10346877;28;20072;-58
2022/01/08 13:21:18;;;;;;;33.30;21.85;;;;;;;;;;10348674;28;20066;-58
2022/01/08 13:26:17;;;;;;;38.42;25.83;;;;;;;;;;10351852;28;20060;-59
2022/01/08 13:31:16;;;;;;;33.58;22.45;;;;;;;;;;10356878;28;20055;-59
2022/01/08 13:36:15;;;;;;;38.13;27.40;;;;;;;;;;10356718;28;20098;-59
2022/01/08 13:41:14;;;;;;;100.05;62.90;;;;;;;;;;10355565;28;20059;-58
2022/01/08 13:46:12;;;;;;;30.48;22.40;;;;;;;;;;10356237;28;20067;-59
2022/01/08 13:51:12;;;;;;;44.42;28.88;;;;;;;;;;10355519;28;20098;-59
2022/01/08 13:56:10;;;;;;;49.50;32.65;;;;;;;;;;10354184;28;20110;-58
2022/01/08 14:01:10;;;;;;;48.60;34.97;;;;;;;;;;10355399;28;20056;-59
2022/01/08 14:06:08;;;;;;;35.70;23.83;;;;;;;;;;10349892;28;20071;-59
2022/01/08 14:11:08;;;;;;;39.38;26.00;;;;;;;;;;10349506;28;20072;-58
2022/01/08 14:16:10;;;;;;;32.50;21.13;;;;;;;;;;10348452;28;20071;-58
2022/01/08 14:21:12;;;;;;;50.17;33.10;;;;;;;;;;10348992;28;20076;-58
2022/01/08 14:26:15;;;;;;;52.65;28.40;;;;;;;;;;10348843;28;20075;-58
2022/01/08 14:31:17;;;;;;;58.28;38.22;;;;;;;;;;10353624;28;20079;-58
2022/01/08 14:36:16;;;;;;;51.22;32.50;;;;;;;;;;10352134;28;20076;-58
2022/01/08 14:41:15;;;;;;;51.28;33.33;;;;;;;;;;10353913;28;20452;-58
2022/01/08 14:46:14;;;;;;;50.63;31.42;;;;;;;;;;10353492;28;20064;-58
2022/01/08 14:51:17;;;;;;;55.22;29.88;;;;;;;;;;10352482;28;20328;-58
2022/01/08 14:56:17;;;;;;;47.33;27.50;;;;;;;;;;10353575;28;20492;-58
2022/01/08 15:01:15;;;;;;;72.28;40.95;;;;;;;;;;10354726;28;20067;-58
2022/01/08 15:06:13;;;;;;;52.63;33.85;;;;;;;;;;10354437;28;20067;-59
2022/01/08 15:11:13;;;;;;;79.30;48.38;;;;;;;;;;10352855;28;20103;-59
2022/01/08 15:16:12;;;;;;;86.65;45.33;;;;;;;;;;10352854;28;20465;-59
2022/01/08 15:21:12;;;;;;;85.35;43.95;;;;;;;;;;10346977;28;20497;-59
2022/01/08 15:26:11;;;;;;;116.35;50.58;;;;;;;;;;10352479;28;20067;-59
2022/01/08 15:31:10;;;;;;;71.03;37.58;;;;;;;;;;10352562;28;20063;-59
2022/01/08 15:36:10;;;;;;;86.18;45.88;;;;;;;;;;10351029;28;20142;-59
2022/01/08 15:41:09;;;;;;;126.63;67.07;;;;;;;;;;10345253;28;20063;-59
2022/01/08 15:46:07;;;;;;;140.00;57.80;;;;;;;;;;10348106;28;20074;-59
2022/01/08 15:51:05;;;;;;;93.72;52.42;;;;;;;;;;10350682;28;20068;-58
2022/01/08 15:56:05;;;;;;;132.55;59.85;;;;;;;;;;10351258;28;20501;-59
2022/01/08 16:01:04;;;;;;;116.78;51.10;;;;;;;;;;10350170;28;20071;-58
2022/01/08 16:06:03;;;;;;;165.90;62.95;;;;;;;;;;10348272;28;20064;-58
2022/01/08 16:11:02;;;;;;;134.82;67.32;;;;;;;;;;10351149;28;20083;-58
2022/01/08 16:16:02;;;;;;;106.07;43.30;;;;;;;;;;10350708;28;20068;-58
2022/01/08 16:21:00;;;;;;;148.50;55.72;;;;;;;;;;10350448;28;20064;-57
2022/01/08 16:25:59;;;;;;;64.15;32.45;;;;;;;;;;10353190;28;20083;-59
2022/01/08 16:30:57;;;;;;;133.18;60.28;;;;;;;;;;10357333;28;20079;-59
2022/01/08 16:35:57;;;;;;;109.35;43.58;;;;;;;;;;10356115;28;20091;-59
2022/01/08 16:40:55;;;;;;;125.88;50.42;;;;;;;;;;10357692;28;20067;-59
2022/01/08 16:45:53;;;;;;;104.63;46.38;;;;;;;;;;10356588;28;20071;-59
2022/01/08 16:50:55;;;;;;;81.53;32.95;;;;;;;;;;10354996;28;20076;-55
2022/01/08 16:55:55;;;;;;;143.55;71.80;;;;;;;;;;10356249;28;20052;-59
2022/01/08 17:00:53;;;;;;;100.10;36.63;;;;;;;;;;10356359;28;20482;-59
2022/01/08 17:05:52;;;;;;;65.35;33.30;;;;;;;;;;10356922;28;20481;-58
2022/01/08 17:10:55;;;;;;;79.40;44.53;;;;;;;;;;10354122;28;20624;-58
2022/01/08 17:15:55;;;;;;;111.05;53.42;;;;;;;;;;10353662;28;20064;-58
2022/01/08 17:20:53;;;;;;;145.43;66.07;;;;;;;;;;10355001;28;20064;-59
2022/01/08 17:25:56;;;;;;;139.70;50.38;;;;;;;;;;10353719;28;20063;-59
2022/01/08 17:30:56;;;;;;;101.10;40.92;;;;;;;;;;10354711;28;20068;-59
2022/01/08 17:35:56;;;;;;;92.40;40.15;;;;;;;;;;10336689;28;20082;-59
2022/01/08 17:40:54;;;;;;;90.20;41.22;;;;;;;;;;10350833;28;20084;-59
2022/01/08 17:45:52;;;;;;;106.50;46.80;;;;;;;;;;10354183;28;20071;-59
2022/01/08 17:50:52;;;;;;;74.45;30.55;;;;;;;;;;10354752;28;20137;-59
2022/01/08 17:55:50;;;;;;;115.22;43.55;;;;;;;;;;10354876;28;20127;-59
2022/01/08 18:00:49;;;;;;;120.65;47.92;;;;;;;;;;10348458;28;20064;-59
2022/01/08 18:05:48;;;;;;;103.57;37.38;;;;;;;;;;10333825;28;20178;-59
2022/01/08 18:10:48;;;;;;;134.50;43.03;;;;;;;;;;10333921;28;20594;-58
2022/01/08 18:15:47;;;;;;;217.82;77.32;;;;;;;;;;10352970;28;20071;-58
2022/01/08 18:20:47;;;;;;;96.28;49.50;;;;;;;;;;10349337;28;20068;-58
2022/01/08 18:25:45;;;;;;;102.13;49.67;;;;;;;;;;10351550;28;20072;-58
2022/01/08 18:30:45;;;;;;;102.05;58.55;;;;;;;;;;10353684;28;20064;-58
2022/01/08 18:35:43;;;;;;;96.30;41.58;;;;;;;;;;10353628;28;20071;-59
2022/01/08 18:40:41;;;;;;;96.40;43.47;;;;;;;;;;10354126;28;20063;-59
2022/01/08 18:45:40;;;;;;;106.07;38.90;;;;;;;;;;10351267;28;20086;-58
2022/01/08 18:50:41;;;;;;;98.95;34.20;;;;;;;;;;10350639;28;20080;-58
2022/01/08 18:55:40;;;;;;;111.18;35.47;;;;;;;;;;10348833;28;20449;-58
2022/01/08 19:00:38;;;;;;;97.13;45.15;;;;;;;;;;10350107;28;20419;-58
2022/01/08 19:05:36;;;;;;;79.60;30.60;;;;;;;;;;10347261;28;20063;-59
2022/01/08 19:10:36;;;;;;;186.20;49.53;;;;;;;;;;10351250;28;20072;-58
2022/01/08 19:15:34;;;;;;;161.65;39.22;;;;;;;;;;10351217;28;20075;-58
2022/01/08 19:20:33;;;;;;;151.38;46.75;;;;;;;;;;10350098;28;20107;-58
2022/01/08 19:25:37;;;;;;;94.18;35.17;;;;;;;;;;10348391;28;20212;-58
2022/01/08 19:30:38;;;;;;;110.80;32.50;;;;;;;;;;10350160;28;20064;-58
2022/01/08 19:35:36;;;;;;;132.18;43.13;;;;;;;;;;10346646;28;20064;-58
2022/01/08 19:40:35;;;;;;;182.30;53.58;;;;;;;;;;10347583;28;20466;-58
2022/01/08 19:45:33;;;;;;;151.43;42.45;;;;;;;;;;10346056;28;20112;-57
2022/01/08 19:50:33;;;;;;;130.30;43.78;;;;;;;;;;10345162;28;20075;-58
2022/01/08 19:55:31;;;;;;;171.32;59.97;;;;;;;;;;10346845;28;20063;-57
2022/01/08 20:00:29;;;;;;;241.90;57.22;;;;;;;;;;10353689;28;20155;-58
2022/01/08 20:05:28;;;;;;;216.10;77.25;;;;;;;;;;10347649;28;20060;-58
2022/01/08 20:10:28;;;;;;;149.27;41.88;;;;;;;;;;10352914;28;20060;-59
2022/01/08 20:15:26;;;;;;;165.20;48.90;;;;;;;;;;10357223;28;20433;-59
2022/01/08 20:20:24;;;;;;;158.25;49.65;;;;;;;;;;10352805;28;20075;-59
2022/01/08 20:25:23;;;;;;;124.45;42.85;;;;;;;;;;10350306;28;20465;-57
2022/01/08 20:30:22;;;;;;;134.88;38.83;;;;;;;;;;10354339;28;20067;-58
2022/01/08 20:35:21;;;;;;;114.68;37.35;;;;;;;;;;10348416;28;20098;-58
2022/01/08 20:40:20;;;;;;;143.68;41.42;;;;;;;;;;10347974;28;20082;-59
2022/01/08 20:45:18;;;;;;;100.55;37.63;;;;;;;;;;10353379;28;20067;-60
2022/01/08 20:50:18;;;;;;;131.43;41.05;;;;;;;;;;10352970;28;20071;-59
2022/01/08 20:55:18;;;;;;;114.10;31.35;;;;;;;;;;10350155;28;20453;-58
2022/01/08 21:00:17;;;;;;;120.40;35.25;;;;;;;;;;10350798;28;20132;-59
2022/01/08 21:05:15;;;;;;;67.53;26.83;;;;;;;;;;10350880;28;20442;-58
2022/01/08 21:10:15;;;;;;;104.20;27.23;;;;;;;;;;10350220;28;20072;-58
2022/01/08 21:15:14;;;;;;;101.53;45.22;;;;;;;;;;10348084;28;20063;-57
2022/01/08 21:20:14;;;;;;;157.80;42.45;;;;;;;;;;10350591;28;20078;-56
2022/01/08 21:25:13;;;;;;;158.95;54.67;;;;;;;;;;10338629;28;20490;-58
2022/01/08 21:30:13;;;;;;;124.32;40.45;;;;;;;;;;10346478;28;20062;-58
2022/01/08 21:35:13;;;;;;;155.43;47.70;;;;;;;;;;10343016;28;20457;-59
2022/01/08 21:40:11;;;;;;;125.85;42.35;;;;;;;;;;10346181;28;20119;-58
2022/01/08 21:45:10;;;;;;;92.28;40.38;;;;;;;;;;10342925;28;20072;-58
2022/01/08 21:50:11;;;;;;;154.35;58.30;;;;;;;;;;10347280;28;20437;-60
2022/01/08 21:55:10;;;;;;;110.28;37.45;;;;;;;;;;10349540;28;20075;-59
2022/01/08 22:00:10;;;;;;;118.13;45.97;;;;;;;;;;10345862;28;20078;-59
2022/01/08 22:05:13;;;;;;;97.65;43.78;;;;;;;;;;10350585;28;20072;-58
2022/01/08 22:10:11;;;;;;;91.78;47.80;;;;;;;;;;10339765;28;20048;-58
2022/01/08 22:15:10;;;;;;;108.55;47.75;;;;;;;;;;10340709;28;20071;-58
2022/01/08 22:20:09;;;;;;;85.70;31.98;;;;;;;;;;10342601;28;20082;-57
2022/01/08 22:25:10;;;;;;;112.82;42.17;;;;;;;;;;10344813;28;20305;-59
2022/01/08 22:30:09;;;;;;;71.65;27.25;;;;;;;;;;10344312;28;20079;-57
2022/01/08 22:35:08;;;;;;;54.97;25.92;;;;;;;;;;10344622;28;20075;-56
2022/01/08 22:40:07;;;;;;;78.15;25.77;;;;;;;;;;10343711;28;20337;-57
2022/01/08 22:45:07;;;;;;;41.67;22.38;;;;;;;;;;10346256;28;20078;-58
2022/01/08 22:50:06;;;;;;;47.65;25.60;;;;;;;;;;10347682;28;20110;-58
2022/01/08 22:55:04;;;;;;;37.17;21.20;;;;;;;;;;10347610;28;20071;-58
2022/01/08 23:00:05;;;;;;;66.15;29.25;;;;;;;;;;10346505;28;20082;-58
2022/01/08 23:05:05;;;;;;;70.07;40.85;;;;;;;;;;10343806;28;20698;-56
2022/01/08 23:10:03;;;;;;;64.97;35.03;;;;;;;;;;10345304;28;20535;-58
2022/01/08 23:15:02;;;;;;;61.05;33.08;;;;;;;;;;10347196;28;20063;-59
2022/01/08 23:20:00;;;;;;;63.92;38.92;;;;;;;;;;10342282;28;20086;-56
2022/01/08 23:25:00;;;;;;;48.97;27.77;;;;;;;;;;10345497;28;20417;-59
2022/01/08 23:29:58;;;;;;;55.42;34.22;;;;;;;;;;10346830;28;20541;-55
2022/01/08 23:34:56;;;;;;;68.22;35.28;;;;;;;;;;10346173;28;20469;-57
2022/01/08 23:39:55;;;;;;;57.17;33.85;;;;;;;;;;10346685;28;20071;-59
2022/01/08 23:44:54;;;;;;;81.70;37.72;;;;;;;;;;10328468;28;20139;-59
2022/01/08 23:50:01;;;;;;;65.68;38.63;;;;;;;;;;10346202;28;20556;-58
2022/01/08 23:54:59;;;;;;;72.03;40.22;;;;;;;;;;10345723;28;20064;-58
2022/01/08 23:59:59;;;;;;;79.90;45.03;;;;;;;;;;10346666;28;20464;-59
